Time;durP1;ratioP1;P1;durP2;ratioP2;P2;SDS_P1;SDS_P2;PMS_P1;PMS_P2;Temp;Humidity;BMP_temperature;BMP_pressure;BME280_temperature;BME280_humidity;BME280_pressure;Samples;Min_cycle;Max_cycle;Signal;HPM_P1;HPM_P2
2023/09/01 00:02:33;;;;;;;6.63;2.47;;;;;;;17.27;100.00;100193.31;10304401;22;20031;-86
2023/09/01 00:06:42;;;;;;;5.50;2.33;;;;;;;17.25;100.00;100203.59;10357053;22;20372;-86
2023/09/01 00:10:42;;;;;;;3.00;2.33;;;;;;;17.14;100.00;100193.16;10278934;22;20011;-86
2023/09/01 00:14:43;;;;;;;4.97;2.70;;;;;;;17.17;100.00;100200.97;10303312;22;20444;-86
2023/09/01 00:18:43;;;;;;;7.38;2.78;;;;;;;17.13;100.00;100195.03;10328792;22;20016;-86
2023/09/01 00:22:44;;;;;;;6.65;3.25;;;;;;;17.22;100.00;100210.28;10353808;22;20015;-86
2023/09/01 00:26:44;;;;;;;4.25;2.20;;;;;;;17.13;100.00;100172.31;10328834;22;20019;-86
2023/09/01 00:31:00;;;;;;;7.32;2.25;;;;;;;17.36;100.00;100205.84;10301236;22;20065;-86
2023/09/01 00:35:03;;;;;;;4.97;2.55;;;;;;;17.33;100.00;100184.34;10325662;22;20085;-81
2023/09/01 00:39:03;;;;;;;5.97;2.60;;;;;;;17.31;100.00;100191.88;10302001;22;20026;-80
2023/09/01 00:43:04;;;;;;;6.30;3.13;;;;;;;17.29;100.00;100185.75;10327363;22;20047;-80
2023/09/01 00:47:05;;;;;;;5.22;3.00;;;;;;;17.30;100.00;100196.50;10379405;22;20023;-80
2023/09/01 00:51:07;;;;;;;5.40;2.88;;;;;;;17.29;100.00;100202.16;10352283;22;20081;-80
2023/09/01 00:55:08;;;;;;;6.50;2.20;;;;;;;17.21;100.00;100180.44;10351689;22;20070;-80
2023/09/01 00:59:08;;;;;;;6.55;2.40;;;;;;;17.17;100.00;100170.94;10301219;22;20043;-80
2023/09/01 01:03:10;;;;;;;7.90;2.50;;;;;;;17.08;100.00;100152.94;10326427;22;20045;-80
2023/09/01 01:07:20;;;;;;;4.78;2.45;;;;;;;17.27;100.00;100174.19;10301719;22;20083;-80
2023/09/01 01:11:30;;;;;;;4.90;2.00;;;;;;;17.24;100.00;100180.03;10352958;22;20364;-80
2023/09/01 01:15:33;;;;;;;4.38;2.15;;;;;;;17.23;100.00;100181.09;10329562;22;20058;-80
2023/09/01 01:19:49;;;;;;;5.83;2.30;;;;;;;17.18;100.00;100169.88;10328006;22;20023;-80
2023/09/01 01:23:52;;;;;;;6.47;2.47;;;;;;;17.19;100.00;100171.56;10280326;22;20020;-80
2023/09/01 01:27:57;;;;;;;6.55;2.50;;;;;;;17.18;100.00;100153.47;10327735;22;20023;-80
2023/09/01 01:31:58;;;;;;;4.47;2.00;;;;;;;16.96;100.00;100110.78;10303351;22;20524;-80
2023/09/01 01:36:12;;;;;;;3.70;1.90;;;;;;;17.16;100.00;100166.47;10278291;22;20012;-80
2023/09/01 01:40:13;;;;;;;6.35;2.28;;;;;;;17.00;100.00;100150.31;10352991;22;20028;-81
2023/09/01 01:44:17;;;;;;;4.35;1.83;;;;;;;17.10;100.00;100172.69;10327911;22;20016;-80
2023/09/01 01:48:18;;;;;;;6.75;2.00;;;;;;;17.09;100.00;100168.28;10278733;22;20019;-80
2023/09/01 01:52:18;;;;;;;5.55;1.90;;;;;;;17.05;100.00;100172.44;10328346;22;20011;-80
2023/09/01 01:56:22;;;;;;;4.15;2.20;;;;;;;17.00;100.00;100167.56;10313760;22;20038;-81
2023/09/01 02:00:46;;;;;;;4.63;1.47;;;;;;;16.85;100.00;100155.78;10280007;22;20197;-81
2023/09/01 02:05:06;;;;;;;3.58;2.53;;;;;;;16.75;100.00;100140.75;10220438;22;20042;-80
2023/09/01 02:09:13;;;;;;;6.28;2.20;;;;;;;16.74;100.00;100150.81;10281630;22;20019;-80
2023/09/01 02:13:38;;;;;;;4.22;2.08;;;;;;;16.75;100.00;100168.91;10312603;22;20381;-80
2023/09/01 02:18:03;;;;;;;6.22;2.15;;;;;;;16.32;100.00;100095.16;10247709;22;20033;-80
2023/09/01 02:22:05;;;;;;;3.25;2.33;;;;;;;16.67;100.00;100157.19;10233948;22;20023;-80
2023/09/01 02:26:06;;;;;;;3.55;1.90;;;;;;;16.77;100.00;100176.91;10303454;22;20086;-80
2023/09/01 02:30:08;;;;;;;5.93;2.30;;;;;;;16.70;100.00;100175.94;10352836;22;20517;-80
2023/09/01 02:34:09;;;;;;;6.95;2.83;;;;;;;16.69;100.00;100174.25;10327764;22;20026;-80
2023/09/01 02:38:10;;;;;;;5.97;2.92;;;;;;;16.55;100.00;100148.66;10277407;22;20020;-80
2023/09/01 02:42:11;;;;;;;4.93;2.30;;;;;;;16.69;100.00;100172.38;10303006;22;20027;-80
2023/09/01 02:46:12;;;;;;;7.32;3.20;;;;;;;16.57;100.00;100153.91;10314243;22;20150;-80
2023/09/01 02:50:13;;;;;;;6.47;2.97;;;;;;;16.56;100.00;100146.78;10301717;22;20011;-80
2023/09/01 02:54:14;;;;;;;4.85;2.70;;;;;;;16.62;100.00;100156.94;10352414;22;20020;-80
2023/09/01 02:58:14;;;;;;;5.85;3.20;;;;;;;16.64;100.00;100154.84;10379754;22;20069;-80
2023/09/01 03:02:15;;;;;;;6.55;3.05;;;;;;;16.48;100.00;100122.28;10303189;22;20081;-86
2023/09/01 03:06:16;;;;;;;3.58;2.75;;;;;;;16.66;100.00;100130.94;10303392;22;20352;-86
2023/09/01 03:10:17;;;;;;;5.95;2.60;;;;;;;16.66;100.00;100130.94;10327687;22;20062;-86
2023/09/01 03:14:17;;;;;;;7.20;2.90;;;;;;;16.63;100.00;100125.88;10288643;22;20093;-81
2023/09/01 03:18:18;;;;;;;7.82;2.97;;;;;;;16.50;100.00;100099.22;10303901;22;20030;-80
2023/09/01 03:22:19;;;;;;;3.83;2.67;;;;;;;16.74;100.00;100142.59;10355596;22;20026;-80
2023/09/01 03:26:22;;;;;;;4.80;2.65;;;;;;;16.82;100.00;100147.13;10281656;22;20015;-80
2023/09/01 03:30:22;;;;;;;4.55;2.53;;;;;;;16.76;100.00;100147.88;10330488;22;20023;-81
2023/09/01 03:34:23;;;;;;;6.65;3.33;;;;;;;16.81;100.00;100146.25;10330320;22;20016;-81
2023/09/01 03:38:24;;;;;;;8.15;2.58;;;;;;;16.80;100.00;100135.56;10330577;22;20012;-80
2023/09/01 03:42:25;;;;;;;5.25;2.55;;;;;;;16.87;100.00;100147.41;10330061;22;20022;-81
2023/09/01 03:46:26;;;;;;;9.68;3.42;;;;;;;16.84;100.00;100142.34;10329890;22;20533;-81
2023/09/01 03:50:26;;;;;;;5.43;3.13;;;;;;;16.82;100.00;100144.41;10330208;22;20037;-80
2023/09/01 03:54:27;;;;;;;4.30;2.83;;;;;;;16.82;100.00;100147.97;10279994;22;20020;-80
2023/09/01 03:58:28;;;;;;;7.78;3.22;;;;;;;16.82;100.00;100141.66;10303993;22;20015;-80
2023/09/01 04:02:28;;;;;;;5.00;3.10;;;;;;;16.89;100.00;100142.59;10329614;22;20066;-80
2023/09/01 04:06:29;;;;;;;4.10;2.53;;;;;;;16.88;100.00;100140.91;10325017;22;20027;-81
2023/09/01 04:10:29;;;;;;;6.32;2.72;;;;;;;16.93;100.00;100143.94;10326703;22;20220;-80
2023/09/01 04:14:30;;;;;;;3.00;2.35;;;;;;;16.89;100.00;100142.59;10326350;22;20407;-81
2023/09/01 04:18:32;;;;;;;4.35;2.83;;;;;;;16.90;100.00;100149.75;10355369;22;20020;-80
2023/09/01 04:22:32;;;;;;;7.82;2.88;;;;;;;16.82;100.00;100137.06;10327169;22;20016;-80
2023/09/01 04:26:33;;;;;;;5.95;2.45;;;;;;;16.85;100.00;100147.59;10301818;22;20031;-81
2023/09/01 04:30:34;;;;;;;2.58;2.33;;;;;;;16.91;100.00;100155.03;10301029;22;20478;-81
2023/09/01 04:34:34;;;;;;;5.65;2.83;;;;;;;16.80;100.00;100127.38;10330353;22;20411;-81
2023/09/01 04:38:35;;;;;;;6.85;2.92;;;;;;;16.86;100.00;100118.41;10301642;22;20476;-80
2023/09/01 04:42:36;;;;;;;4.03;2.60;;;;;;;16.89;100.00;100126.22;10329580;22;20023;-81
2023/09/01 04:46:36;;;;;;;4.22;2.35;;;;;;;17.04;100.00;100129.75;10325871;22;20471;-81
2023/09/01 04:50:37;;;;;;;4.93;2.47;;;;;;;16.95;100.00;100130.91;10277281;22;20483;-80
2023/09/01 04:54:38;;;;;;;5.47;2.30;;;;;;;16.93;100.00;100124.81;10330584;22;20019;-81
2023/09/01 04:58:38;;;;;;;3.42;2.10;;;;;;;16.97;100.00;100123.38;10325659;22;20125;-81
2023/09/01 05:02:39;;;;;;;6.15;2.10;;;;;;;17.08;100.00;100131.91;10297732;22;20111;-80
2023/09/01 05:06:39;;;;;;;5.55;2.25;;;;;;;17.12;100.00;100137.84;10277320;22;20023;-81
2023/09/01 05:10:41;;;;;;;4.97;2.55;;;;;;;17.19;100.00;100144.25;10324684;22;20039;-80
2023/09/01 05:14:42;;;;;;;5.75;2.45;;;;;;;17.15;100.00;100138.34;10361317;22;20031;-80
2023/09/01 05:18:43;;;;;;;5.68;1.92;;;;;;;17.22;100.00;100128.31;10322540;22;20023;-81
2023/09/01 05:22:43;;;;;;;5.10;2.20;;;;;;;17.20;100.00;100140.50;10298266;22;20023;-81
2023/09/01 05:26:45;;;;;;;2.97;2.22;;;;;;;17.05;100.00;100109.63;10324132;22;20360;-80
2023/09/01 05:30:47;;;;;;;3.95;1.80;;;;;;;17.17;100.00;100124.47;10303358;22;20020;-81
2023/09/01 05:34:48;;;;;;;3.78;1.63;;;;;;;17.24;100.00;100141.78;10275924;22;20030;-83
2023/09/01 05:38:49;;;;;;;3.85;1.60;;;;;;;17.21;100.00;100131.25;10273587;22;20315;-82
2023/09/01 05:42:51;;;;;;;2.72;1.60;;;;;;;17.25;100.00;100138.00;10326290;22;20083;-83
2023/09/01 05:46:51;;;;;;;3.70;1.75;;;;;;;17.34;100.00;100145.06;10285175;22;20012;-82
2023/09/01 05:50:52;;;;;;;3.25;1.60;;;;;;;17.38;100.00;100132.69;10300551;22;20018;-82
2023/09/01 05:54:53;;;;;;;6.13;1.80;;;;;;;17.42;100.00;100129.38;10303040;22;20042;-88
2023/09/01 05:58:53;;;;;;;3.47;1.88;;;;;;;17.58;100.00;100137.38;10304044;22;20016;-90
2023/09/01 06:02:54;;;;;;;3.72;1.90;;;;;;;17.59;100.00;100114.47;10305602;22;20015;-82
2023/09/01 06:06:55;;;;;;;4.75;1.70;;;;;;;17.72;100.00;100143.81;10357840;22;20069;-89
2023/09/01 06:11:05;;;;;;;2.58;1.55;;;;;;;17.67;100.00;100107.16;10285341;22;20023;-87
2023/09/01 06:15:06;;;;;;;5.15;1.70;;;;;;;17.45;100.00;100085.28;10315705;22;20075;-87
2023/09/01 06:19:07;;;;;;;2.38;1.60;;;;;;;17.62;100.00;100112.38;10294730;22;20015;-89
2023/09/01 06:23:08;;;;;;;5.15;1.70;;;;;;;17.80;100.00;100143.69;10336486;22;20094;-90
2023/09/01 06:27:08;;;;;;;3.72;1.60;;;;;;;17.94;100.00;100156.44;10331604;22;20402;-89
2023/09/01 06:31:09;;;;;;;3.60;1.20;;;;;;;17.63;100.00;100106.72;10285501;22;20471;-88
2023/09/01 06:35:10;;;;;;;1.95;1.10;;;;;;;17.54;100.00;100110.63;10335621;22;20039;-88
2023/09/01 06:39:10;;;;;;;4.22;1.55;;;;;;;17.81;100.00;100167.25;10332444;22;20026;-88
2023/09/01 06:43:11;;;;;;;3.33;1.50;;;;;;;17.44;100.00;100116.41;10308413;22;20379;-87
2023/09/01 06:47:12;;;;;;;2.90;1.45;;;;;;;17.43;100.00;100103.78;10313311;22;20015;-88
2023/09/01 06:51:12;;;;;;;2.47;1.70;;;;;;;17.52;100.00;100108.09;10313413;22;20015;-87
2023/09/01 06:55:13;;;;;;;3.53;1.38;;;;;;;17.76;100.00;100134.19;10301968;22;20016;-88
2023/09/01 06:59:14;;;;;;;3.65;1.63;;;;;;;18.10;100.00;100171.72;10342214;22;20470;-90
2023/09/01 07:03:14;;;;;;;3.28;1.63;;;;;;;18.09;100.00;100164.56;10301091;22;20085;-90
2023/09/01 07:07:15;;;;;;;9.68;1.67;;;;;;;18.05;100.00;100157.81;10328730;22;20480;-88
2023/09/01 07:11:19;;;;;;;4.07;1.63;;;;;;;17.93;100.00;100140.22;10328965;22;20027;-87
2023/09/01 07:15:20;;;;;;;;;;;;;;;18.00;100.00;100154.81;10328401;22;20559;-84
2023/09/01 07:19:21;;;;;;;2.45;2.15;;;;;;;17.93;100.00;100154.72;10325180;22;19911;-83
2023/09/01 07:23:21;;;;;;;2.25;1.48;;;;;;;17.94;100.00;100156.44;10326672;22;20075;-89
2023/09/01 07:27:22;;;;;;;2.80;1.65;;;;;;;17.81;100.00;100139.88;10329135;22;20083;-88
2023/09/01 07:31:23;;;;;;;2.45;1.20;;;;;;;17.95;100.00;100152.66;10278424;22;20030;-88
2023/09/01 07:35:24;;;;;;;3.95;1.65;;;;;;;17.95;100.00;100169.06;10354159;22;20376;-87
2023/09/01 07:39:24;;;;;;;4.70;1.63;;;;;;;17.82;100.00;100147.06;10303274;22;20011;-87
2023/09/01 07:43:25;;;;;;;3.60;1.77;;;;;;;17.86;100.00;100163.91;10331324;22;20018;-86
2023/09/01 07:47:26;;;;;;;6.88;1.48;;;;;;;17.87;100.00;100155.50;10332321;22;20146;-87
2023/09/01 07:51:27;;;;;;;4.07;1.30;;;;;;;17.88;100.00;100159.97;10332624;22;20015;-90
2023/09/01 07:55:27;;;;;;;7.68;1.55;;;;;;;17.78;100.00;100143.00;10309738;22;20049;-90
2023/09/01 07:59:28;;;;;;;4.47;1.70;;;;;;;17.60;100.00;100126.25;10310253;22;20016;-89
2023/09/01 08:03:28;;;;;;;3.13;2.10;;;;;;;17.68;100.00;100139.78;10363815;22;20019;-91
2023/09/01 08:07:30;;;;;;;4.47;2.00;;;;;;;17.86;100.00;100159.31;10312168;22;20084;-90
2023/09/01 08:11:31;;;;;;;3.60;1.45;;;;;;;17.93;100.00;100164.84;10313447;22;20090;-91
2023/09/01 08:15:32;;;;;;;3.53;1.25;;;;;;;17.96;100.00;100159.81;10287987;22;20459;-87
2023/09/01 08:19:32;;;;;;;5.70;2.15;;;;;;;18.03;100.00;100171.69;10337123;22;20057;-88
2023/09/01 08:23:33;;;;;;;4.80;1.95;;;;;;;17.86;100.00;100142.03;10298319;22;20069;-88
2023/09/01 08:27:36;;;;;;;3.28;1.92;;;;;;;17.88;100.00;100129.88;10309851;22;20033;-87
2023/09/01 08:31:37;;;;;;;2.55;1.85;;;;;;;18.10;100.00;100155.31;10286868;22;20024;-87
2023/09/01 08:35:37;;;;;;;4.13;1.48;;;;;;;18.12;100.00;100159.56;10285112;22;20031;-87
2023/09/01 08:39:38;;;;;;;1.83;1.25;;;;;;;18.23;100.00;100167.22;10337086;22;20020;-87
2023/09/01 08:43:39;;;;;;;3.00;1.42;;;;;;;18.32;100.00;100170.63;10356179;22;20024;-88
2023/09/01 08:47:44;;;;;;;3.15;1.27;;;;;;;18.40;100.00;100163.19;10311019;22;20015;-88
2023/09/01 08:51:47;;;;;;;3.50;1.50;;;;;;;18.52;100.00;100163.47;10271875;22;20018;-88
2023/09/01 08:55:48;;;;;;;2.17;1.70;;;;;;;18.68;100.00;100163.13;10283794;22;20065;-83
2023/09/01 08:59:49;;;;;;;4.85;1.50;;;;;;;18.81;100.00;100163.22;10332839;22;20012;-83
2023/09/01 09:03:49;;;;;;;2.55;1.00;;;;;;;18.77;100.00;100140.03;10331653;22;20094;-81
2023/09/01 09:08:07;;;;;;;4.15;1.00;;;;;;;19.05;100.00;100174.53;10358083;22;20019;-83
2023/09/01 09:12:08;;;;;;;2.78;1.23;;;;;;;19.10;100.00;100188.47;10356955;22;20019;-82
2023/09/01 09:16:12;;;;;;;3.33;0.80;;;;;;;19.14;100.00;100187.00;10331724;22;20019;-82
2023/09/01 09:20:15;;;;;;;2.72;1.17;;;;;;;19.12;100.00;100167.19;10307739;22;20034;-82
2023/09/01 09:24:34;;;;;;;5.53;1.17;;;;;;;19.25;100.00;100182.84;10331936;22;20027;-82
2023/09/01 09:28:35;;;;;;;0.88;0.70;;;;;;;19.15;100.00;100161.28;10282656;22;20019;-83
2023/09/01 09:32:35;;;;;;;4.03;1.60;;;;;;;19.42;100.00;100196.03;10304168;22;20012;-83
2023/09/01 09:36:36;;;;;;;2.95;1.17;;;;;;;19.48;100.00;100189.72;10352587;22;20031;-82
2023/09/01 09:40:39;;;;;;;1.25;1.10;;;;;;;19.51;100.00;100173.91;10327465;22;20016;-82
2023/09/01 09:44:40;;;;;;;1.88;0.85;;;;;;;19.62;100.00;100189.75;10331122;22;20015;-82
2023/09/01 09:48:41;;;;;;;3.25;1.38;;;;;;;19.70;100.00;100200.53;10331099;22;20034;-83
2023/09/01 09:52:49;;;;;;;2.35;0.98;;;;;;;19.56;100.00;100182.34;10306367;22;20015;-82
2023/09/01 09:56:50;;;;;;;1.92;1.23;;;;;;;19.68;100.00;100205.38;10331205;22;20129;-82
2023/09/01 10:01:15;;;;;;;1.95;1.23;;;;;;;19.52;100.00;100177.28;10290097;22;20022;-82
2023/09/01 10:05:17;;;;;;;3.88;1.38;;;;;;;19.96;100.00;100217.06;10331815;22;20343;-82
2023/09/01 10:09:18;;;;;;;3.13;1.42;;;;;;;19.89;100.00;100188.75;10305458;22;20061;-82
2023/09/01 10:13:19;;;;;;;2.75;1.88;;;;;;;20.24;100.00;100207.63;10330904;22;20020;-82
2023/09/01 10:17:21;;;;;;;2.33;1.70;;;;;;;20.27;100.00;100209.97;10329617;22;20031;-88
2023/09/01 10:21:22;;;;;;;2.30;1.50;;;;;;;20.40;100.00;100195.41;10352750;22;20020;-85
2023/09/01 10:25:24;;;;;;;2.25;1.70;;;;;;;20.54;100.00;100217.16;10327840;22;20061;-85
2023/09/01 10:29:33;;;;;;;2.47;1.40;;;;;;;20.59;100.00;100214.59;10328259;22;20026;-85
2023/09/01 10:33:34;;;;;;;4.13;1.92;;;;;;;20.61;100.00;100214.38;10305074;22;20020;-86
2023/09/01 10:37:35;;;;;;;2.45;1.65;;;;;;;20.66;100.00;100217.34;10355521;22;20032;-86
2023/09/01 10:41:58;;;;;;;3.65;1.92;;;;;;;20.75;100.00;100211.41;10354746;22;20023;-86
2023/09/01 10:50:34;;;;;;;3.10;1.60;;;;;;;20.53;100.00;100189.88;8362337;27;20981;-84
2023/09/01 10:58:54;;;;;;;4.07;1.55;;;;;;;20.63;100.00;100191.16;8355860;27;20483;-86
2023/09/01 11:03:30;;;;;;;3.45;1.92;;;;;;;20.77;100.00;100227.69;8366765;28;20091;-87
2023/09/01 11:08:08;;;;;;;2.53;1.63;;;;;;;20.69;100.00;100215.03;8315351;28;20470;-87
2023/09/01 11:12:10;;;;;;;6.30;1.55;;;;;;;20.63;100.00;100217.75;8327858;28;20045;-88
2023/09/01 11:16:11;;;;;;;3.92;1.92;;;;;;;20.56;100.00;100216.94;8375499;28;20064;-88
2023/09/01 11:20:16;;;;;;;4.50;1.80;;;;;;;20.56;100.00;100211.44;8361951;28;20129;-87
2023/09/01 11:24:20;;;;;;;3.83;2.00;;;;;;;20.44;100.00;100182.91;8372161;28;20040;-89
2023/09/01 11:28:22;;;;;;;2.08;1.65;;;;;;;20.60;100.00;100204.44;8357359;28;20033;-85
2023/09/01 11:32:29;;;;;;;5.75;1.88;;;;;;;20.47;100.00;100194.34;8380908;28;20037;-89
2023/09/01 11:36:30;;;;;;;2.20;1.67;;;;;;;20.58;100.00;100206.56;8384560;28;20036;-80
2023/09/01 11:40:32;;;;;;;3.35;1.73;;;;;;;20.48;100.00;100206.16;8375429;28;20076;-81
2023/09/01 11:44:33;;;;;;;3.90;1.42;;;;;;;20.54;100.00;100210.78;8326710;28;20044;-86
2023/09/01 11:48:34;;;;;;;6.50;1.70;;;;;;;20.59;100.00;100202.78;8300185;28;20129;-86
2023/09/01 11:52:55;;;;;;;5.13;1.75;;;;;;;20.54;100.00;100199.81;8342214;28;20041;-86
2023/09/01 11:56:56;;;;;;;2.85;1.63;;;;;;;20.67;100.00;100217.13;8313935;28;20119;-86
2023/09/01 12:00:56;;;;;;;4.07;1.70;;;;;;;20.64;100.00;100200.22;8305407;28;20052;-86
2023/09/01 12:04:57;;;;;;;2.47;1.67;;;;;;;20.52;100.00;100186.28;8367501;28;20037;-85
2023/09/01 12:09:10;;;;;;;5.40;1.60;;;;;;;20.73;100.00;100209.91;8344244;28;20042;-87
2023/09/01 12:13:12;;;;;;;5.65;1.50;;;;;;;20.73;100.00;100212.66;8358187;28;20045;-86
2023/09/01 12:17:18;;;;;;;3.30;1.08;;;;;;;20.74;100.00;100206.13;8346511;28;20033;-85
2023/09/01 12:21:19;;;;;;;2.72;1.08;;;;;;;20.70;100.00;100210.34;8353762;28;20789;-87
2023/09/01 12:25:19;;;;;;;2.58;1.35;;;;;;;20.81;100.00;100195.97;8336680;28;20069;-86
2023/09/01 12:29:20;;;;;;;2.25;1.13;;;;;;;20.74;100.00;100200.66;8364332;28;20052;-86
2023/09/01 12:33:21;;;;;;;2.38;1.40;;;;;;;20.76;100.00;100179.28;8320520;28;20063;-86
2023/09/01 12:37:22;;;;;;;2.05;1.15;;;;;;;20.81;100.00;100168.50;8338250;28;20122;-85
2023/09/01 12:41:22;;;;;;;2.70;1.23;;;;;;;21.13;100.00;100200.56;8339342;28;20041;-85
2023/09/01 12:45:23;;;;;;;1.23;0.90;;;;;;;20.86;100.00;100204.44;8340047;28;20038;-85
2023/09/01 12:49:23;;;;;;;2.15;1.20;;;;;;;20.90;100.00;100208.44;8323890;28;20108;-85
2023/09/01 12:53:24;;;;;;;2.00;1.20;;;;;;;21.05;100.00;100212.63;8322850;28;20040;-85
2023/09/01 12:57:24;;;;;;;1.88;1.10;;;;;;;21.08;100.00;100197.63;8314731;28;20091;-85
2023/09/01 13:01:25;;;;;;;3.88;1.15;;;;;;;21.23;100.00;100206.47;8326908;28;20076;-85
2023/09/01 13:05:28;;;;;;;0.80;0.77;;;;;;;21.30;100.00;100201.78;8330223;28;20060;-86
2023/09/01 13:09:29;;;;;;;0.73;0.63;;;;;;;21.23;100.00;100220.22;8327317;28;20052;-86
2023/09/01 13:13:30;;;;;;;1.60;1.00;;;;;;;21.29;100.00;100209.19;8340759;28;20064;-86
2023/09/01 13:17:32;;;;;;;1.48;0.85;;;;;;;21.38;100.00;100213.38;8346872;28;20114;-86
2023/09/01 13:21:33;;;;;;;1.95;0.68;;;;;;;21.58;100.00;100194.03;8325900;28;20051;-85
2023/09/01 13:25:33;;;;;;;1.25;0.85;;;;;;;21.80;100.00;100209.19;8359099;28;20040;-86
2023/09/01 13:29:34;;;;;;;1.25;0.60;;;;;;;21.87;100.00;100203.66;8342208;28;20040;-86
2023/09/01 13:33:40;;;;;;;1.38;1.08;;;;;;;21.97;100.00;100195.75;8334004;28;20494;-86
2023/09/01 13:37:41;;;;;;;1.13;0.60;;;;;;;21.87;100.00;100199.00;8344810;28;20116;-86
2023/09/01 13:41:41;;;;;;;1.35;0.50;;;;;;;21.50;100.00;100185.19;8370169;28;20051;-86
2023/09/01 13:45:42;;;;;;;0.90;0.20;;;;;;;20.99;100.00;100209.94;8302583;28;20495;-88
2023/09/01 13:49:42;;;;;;;0.20;0.20;;;;;;;20.74;100.00;100228.13;8365808;28;20104;-86
2023/09/01 13:53:43;;;;;;;0.57;0.30;;;;;;;21.07;100.00;100228.91;8325828;28;20037;-88
2023/09/01 13:57:43;;;;;;;0.88;0.30;;;;;;;21.14;100.00;100238.03;8340522;28;20144;-89
2023/09/01 14:01:44;;;;;;;0.25;0.22;;;;;;;21.16;100.00;100238.63;8337774;28;20562;-90
2023/09/01 14:05:44;;;;;;;1.80;0.50;;;;;;;21.07;100.00;100228.91;8327563;28;20046;-89
2023/09/01 14:09:45;;;;;;;3.20;0.60;;;;;;;20.91;100.00;100248.59;8318731;28;20144;-90
2023/09/01 14:13:45;;;;;;;1.50;0.45;;;;;;;20.51;100.00;100211.22;8344028;28;20049;-94
2023/09/01 14:17:46;;;;;;;0.80;0.43;;;;;;;20.81;100.00;100250.94;8322453;28;20037;-93
2023/09/01 14:21:47;;;;;;;2.25;0.70;;;;;;;20.55;100.00;100220.72;8329064;28;20049;-90
2023/09/01 14:25:48;;;;;;;1.88;0.50;;;;;;;20.73;100.00;100262.13;8358338;28;20426;-92
2023/09/01 14:29:48;;;;;;;1.35;0.50;;;;;;;20.72;100.00;100268.69;8337340;28;20163;-90
2023/09/01 14:33:49;;;;;;;3.97;0.60;;;;;;;20.60;100.00;100275.88;8346822;28;20495;-87
2023/09/01 14:37:49;;;;;;;0.95;0.40;;;;;;;20.48;100.00;100272.91;8304861;28;20029;-87
2023/09/01 14:41:50;;;;;;;0.50;0.40;;;;;;;20.51;100.00;100279.88;8331269;28;20040;-88
2023/09/01 14:45:50;;;;;;;0.35;0.30;;;;;;;20.56;100.00;100291.09;8318186;28;20037;-88
2023/09/01 14:49:51;;;;;;;1.17;0.68;;;;;;;20.52;100.00;100303.56;8342448;28;20071;-84
2023/09/01 14:53:52;;;;;;;1.65;0.45;;;;;;;20.50;100.00;100302.94;8340770;28;20045;-87
2023/09/01 14:57:52;;;;;;;0.88;0.32;;;;;;;20.66;100.00;100308.00;8325605;28;20037;-88
2023/09/01 15:01:54;;;;;;;0.57;0.45;;;;;;;20.63;100.00;100286.44;8356110;28;20033;-87
2023/09/01 15:05:55;;;;;;;1.00;0.32;;;;;;;20.77;100.00;100282.66;8296127;28;20046;-87
2023/09/01 15:09:56;;;;;;;2.45;0.40;;;;;;;21.04;100.00;100307.19;8278953;28;20049;-87
2023/09/01 15:13:56;;;;;;;3.42;0.57;;;;;;;21.13;100.00;100324.28;8255828;28;20063;-88
2023/09/01 15:17:57;;;;;;;0.73;0.52;;;;;;;21.07;100.00;100300.41;8343419;28;20040;-86
2023/09/01 15:21:57;;;;;;;1.30;0.93;;;;;;;21.48;100.00;100325.72;8329696;28;20098;-86
2023/09/01 15:25:58;;;;;;;1.75;1.00;;;;;;;21.62;100.00;100329.28;8325946;28;20045;-87
2023/09/01 15:29:58;;;;;;;2.10;0.80;;;;;;;21.90;100.00;100325.19;8308352;28;20640;-87
2023/09/01 15:33:59;;;;;;;1.17;0.80;;;;;;;21.97;100.00;100327.91;8336071;28;20045;-89
2023/09/01 15:38:00;;;;;;;0.93;0.60;;;;;;;21.81;100.00;100303.63;8316361;28;20491;-91
2023/09/01 15:42:00;;;;;;;1.48;0.80;;;;;;;21.77;100.00;100303.22;8312639;28;20102;-86
2023/09/01 15:46:02;;;;;;;0.57;0.50;;;;;;;21.76;100.00;100322.69;8339993;28;20076;-88
2023/09/01 15:50:02;;;;;;;1.70;0.57;;;;;;;21.86;100.00;100351.44;8322243;28;20068;-87
2023/09/01 15:54:03;;;;;;;0.80;0.55;;;;;;;21.54;100.00;100302.00;8305851;28;20038;-88
2023/09/01 15:58:05;;;;;;;1.63;0.60;;;;;;;21.87;100.00;100360.56;8291121;28;20042;-85
2023/09/01 16:02:06;;;;;;;1.98;0.70;;;;;;;21.86;100.00;100362.47;8303380;28;20361;-87
2023/09/01 16:06:06;;;;;;;2.58;0.60;;;;;;;21.93;100.00;100363.31;8338405;28;20045;-89
2023/09/01 16:10:07;;;;;;;2.40;0.70;;;;;;;21.90;100.00;100366.50;8318229;28;20038;-87
2023/09/01 16:14:07;;;;;;;0.80;0.73;;;;;;;21.79;100.00;100342.38;8322465;28;20041;-87
2023/09/01 16:18:08;;;;;;;0.80;0.60;;;;;;;21.98;100.00;100360.72;8341969;28;20045;-88
2023/09/01 16:22:08;;;;;;;0.82;0.82;;;;;;;21.79;100.00;100345.13;8336500;28;20139;-87
2023/09/01 16:26:09;;;;;;;1.13;0.90;;;;;;;21.88;100.00;100374.13;8298904;28;20073;-87
2023/09/01 16:30:11;;;;;;;1.27;0.90;;;;;;;21.76;100.00;100350.22;8321989;28;20034;-89
2023/09/01 16:34:11;;;;;;;5.32;0.80;;;;;;;21.82;100.00;100363.97;8321672;28;20049;-90
2023/09/01 16:38:12;;;;;;;0.80;0.70;;;;;;;21.72;100.00;100338.78;8315993;28;20312;-82
2023/09/01 16:42:12;;;;;;;2.15;0.90;;;;;;;21.94;100.00;100364.13;8314297;28;20406;-83
2023/09/01 16:46:13;;;;;;;3.08;0.85;;;;;;;21.74;100.00;100349.59;8352272;28;20116;-82
2023/09/01 16:50:15;;;;;;;1.98;0.70;;;;;;;21.86;100.00;100376.22;8286132;28;20037;-81
2023/09/01 16:54:16;;;;;;;1.00;0.80;;;;;;;21.94;100.00;100392.53;8299123;28;20183;-82
2023/09/01 16:58:19;;;;;;;0.80;0.77;;;;;;;21.84;100.00;100383.03;8352391;28;20087;-81
2023/09/01 17:02:19;;;;;;;3.35;0.90;;;;;;;21.76;100.00;100389.59;8348420;28;20037;-82
2023/09/01 17:06:20;;;;;;;0.80;0.77;;;;;;;21.73;100.00;100406.50;8353861;28;20115;-83
2023/09/01 17:10:21;;;;;;;1.38;0.93;;;;;;;21.70;100.00;100406.94;8353514;28;20032;-82
2023/09/01 17:14:24;;;;;;;1.60;1.10;;;;;;;21.57;100.00;100408.88;8354764;28;20098;-82
2023/09/01 17:18:25;;;;;;;1.15;0.65;;;;;;;21.69;100.00;100413.53;8355802;28;20033;-82
2023/09/01 17:22:25;;;;;;;1.23;0.90;;;;;;;21.26;100.00;100382.88;8336320;28;20706;-82
2023/09/01 17:26:26;;;;;;;1.40;0.90;;;;;;;21.31;100.00;100398.75;8352564;28;20494;-82
2023/09/01 17:30:26;;;;;;;1.15;0.80;;;;;;;21.50;100.00;100411.63;8339332;28;20546;-82
2023/09/01 17:34:27;;;;;;;1.27;1.02;;;;;;;21.35;100.00;100419.28;8354251;28;20494;-81
2023/09/01 17:38:27;;;;;;;1.33;1.00;;;;;;;21.14;100.00;100408.50;8349174;28;20505;-82
2023/09/01 17:42:28;;;;;;;2.28;1.10;;;;;;;21.19;100.00;100414.19;8327619;28;20509;-82
2023/09/01 17:46:29;;;;;;;2.00;1.38;;;;;;;21.12;100.00;100425.19;8346525;28;20251;-90
2023/09/01 17:50:29;;;;;;;1.13;1.02;;;;;;;20.87;100.00;100409.50;8359597;28;20517;-89
2023/09/01 17:54:30;;;;;;;1.27;1.17;;;;;;;20.56;100.00;100385.31;8356616;28;20059;-88
2023/09/01 17:58:31;;;;;;;5.60;1.30;;;;;;;20.25;100.00;100365.81;8342059;28;20040;-88
2023/09/01 18:02:36;;;;;;;1.92;1.00;;;;;;;20.34;100.00;100433.22;8365165;28;20507;-88
2023/09/01 18:06:37;;;;;;;2.13;1.08;;;;;;;20.38;100.00;100447.41;8377001;28;20041;-88
2023/09/01 18:10:38;;;;;;;2.47;1.33;;;;;;;20.22;100.00;100439.53;8345430;28;20043;-88
2023/09/01 18:14:46;;;;;;;3.08;1.50;;;;;;;19.95;100.00;100415.72;8343981;28;20032;-89
2023/09/01 18:18:47;;;;;;;2.55;1.20;;;;;;;19.94;100.00;100456.03;8345724;28;20048;-88
2023/09/01 18:22:49;;;;;;;3.90;1.52;;;;;;;19.76;100.00;100463.94;8364597;28;20036;-89
2023/09/01 18:26:49;;;;;;;2.35;1.58;;;;;;;19.46;100.00;100424.91;8380276;28;20051;-88
2023/09/01 18:30:50;;;;;;;3.72;1.70;;;;;;;19.17;100.00;100419.59;8334066;28;20033;-88
2023/09/01 18:34:51;;;;;;;1.95;1.48;;;;;;;19.43;100.00;100469.16;8363820;28;20043;-88